sensor_id;sensor_type;location;lat;lon;timestamp;temperature;humidity
11925;DHT22;6022;48.768;18.608;2023-02-23T00:02:06;3.70;99.90
11925;DHT22;6022;48.768;18.608;2023-02-23T00:04:40;3.50;99.90
11925;DHT22;6022;48.768;18.608;2023-02-23T00:07:08;3.70;99.90
11925;DHT22;6022;48.768;18.608;2023-02-23T00:09:46;3.80;99.90
11925;DHT22;6022;48.768;18.608;2023-02-23T00:12:13;3.70;99.90
11925;DHT22;6022;48.768;18.608;2023-02-23T00:14:44;3.90;99.90
11925;DHT22;6022;48.768;18.608;2023-02-23T00:17:16;3.80;99.90
11925;DHT22;6022;48.768;18.608;2023-02-23T00:19:46;3.80;99.90
11925;DHT22;6022;48.768;18.608;2023-02-23T00:22:15;3.80;99.90
11925;DHT22;6022;48.768;18.608;2023-02-23T00:24:46;3.80;99.90
11925;DHT22;6022;48.768;18.608;2023-02-23T00:27:14;3.80;99.90
11925;DHT22;6022;48.768;18.608;2023-02-23T00:29:48;3.80;99.90
11925;DHT22;6022;48.768;18.608;2023-02-23T00:32:18;3.90;99.90
11925;DHT22;6022;48.768;18.608;2023-02-23T00:34:57;3.50;99.90
11925;DHT22;6022;48.768;18.608;2023-02-23T00:37:25;3.60;99.90
11925;DHT22;6022;48.768;18.608;2023-02-23T00:39:55;3.80;99.90
11925;DHT22;6022;48.768;18.608;2023-02-23T00:42:31;3.90;99.90
11925;DHT22;6022;48.768;18.608;2023-02-23T00:45:20;3.50;99.90
11925;DHT22;6022;48.768;18.608;2023-02-23T00:47:51;3.60;99.90
11925;DHT22;6022;48.768;18.608;2023-02-23T00:50:21;3.90;99.90
11925;DHT22;6022;48.768;18.608;2023-02-23T00:52:49;3.90;99.90
11925;DHT22;6022;48.768;18.608;2023-02-23T00:55:17;3.90;99.90
11925;DHT22;6022;48.768;18.608;2023-02-23T00:57:47;3.90;99.90
11925;DHT22;6022;48.768;18.608;2023-02-23T01:00:15;3.70;99.90
11925;DHT22;6022;48.768;18.608;2023-02-23T01:03:16;3.80;99.90
11925;DHT22;6022;48.768;18.608;2023-02-23T01:05:49;4.00;99.90
11925;DHT22;6022;48.768;18.608;2023-02-23T01:08:21;4.00;99.90
11925;DHT22;6022;48.768;18.608;2023-02-23T01:10:49;3.90;99.90
11925;DHT22;6022;48.768;18.608;2023-02-23T01:13:19;3.90;99.90
11925;DHT22;6022;48.768;18.608;2023-02-23T01:15:48;3.70;99.90
11925;DHT22;6022;48.768;18.608;2023-02-23T01:18:16;3.80;99.90
11925;DHT22;6022;48.768;18.608;2023-02-23T01:20:46;4.10;99.90
11925;DHT22;6022;48.768;18.608;2023-02-23T01:23:14;3.70;99.90
11925;DHT22;6022;48.768;18.608;2023-02-23T01:25:47;4.10;99.90
11925;DHT22;6022;48.768;18.608;2023-02-23T01:28:18;4.10;99.90
11925;DHT22;6022;48.768;18.608;2023-02-23T01:31:00;4.00;99.90
11925;DHT22;6022;48.768;18.608;2023-02-23T01:33:30;4.00;99.90
11925;DHT22;6022;48.768;18.608;2023-02-23T01:35:59;3.80;99.90
11925;DHT22;6022;48.768;18.608;2023-02-23T01:38:27;4.00;99.90
11925;DHT22;6022;48.768;18.608;2023-02-23T01:40:57;4.00;99.90
11925;DHT22;6022;48.768;18.608;2023-02-23T01:43:27;3.90;99.90
11925;DHT22;6022;48.768;18.608;2023-02-23T01:46:10;4.00;99.90
11925;DHT22;6022;48.768;18.608;2023-02-23T01:48:49;4.00;99.90
11925;DHT22;6022;48.768;18.608;2023-02-23T01:51:28;3.80;99.90
11925;DHT22;6022;48.768;18.608;2023-02-23T01:54:08;4.00;99.90
11925;DHT22;6022;48.768;18.608;2023-02-23T01:56:45;4.00;99.90
11925;DHT22;6022;48.768;18.608;2023-02-23T01:59:42;4.00;99.90
11925;DHT22;6022;48.768;18.608;2023-02-23T02:02:30;4.00;99.90
11925;DHT22;6022;48.768;18.608;2023-02-23T02:05:33;3.90;99.90
11925;DHT22;6022;48.768;18.608;2023-02-23T02:08:03;4.20;99.90
11925;DHT22;6022;48.768;18.608;2023-02-23T02:10:33;3.80;99.90
11925;DHT22;6022;48.768;18.608;2023-02-23T02:13:14;3.80;99.90
11925;DHT22;6022;48.768;18.608;2023-02-23T02:16:18;4.20;99.90
11925;DHT22;6022;48.768;18.608;2023-02-23T02:19:08;4.10;99.90
11925;DHT22;6022;48.768;18.608;2023-02-23T02:28:09;4.10;99.90
11925;DHT22;6022;48.768;18.608;2023-02-23T02:40:01;4.40;99.90
11925;DHT22;6022;48.768;18.608;2023-02-23T02:45:28;4.20;99.90
11925;DHT22;6022;48.768;18.608;2023-02-23T02:48:15;4.20;99.90
11925;DHT22;6022;48.768;18.608;2023-02-23T02:50:59;4.60;99.90
11925;DHT22;6022;48.768;18.608;2023-02-23T02:56:45;4.50;99.90
11925;DHT22;6022;48.768;18.608;2023-02-23T02:59:18;4.60;99.90
11925;DHT22;6022;48.768;18.608;2023-02-23T03:02:06;4.50;99.90
11925;DHT22;6022;48.768;18.608;2023-02-23T03:05:00;4.60;99.90
11925;DHT22;6022;48.768;18.608;2023-02-23T03:16:43;4.70;99.90
11925;DHT22;6022;48.768;18.608;2023-02-23T03:19:57;4.70;99.90
11925;DHT22;6022;48.768;18.608;2023-02-23T03:26:46;4.40;99.90
11925;DHT22;6022;48.768;18.608;2023-02-23T03:29:54;4.60;99.90
11925;DHT22;6022;48.768;18.608;2023-02-23T03:32:53;4.60;99.90
11925;DHT22;6022;48.768;18.608;2023-02-23T03:36:05;4.70;99.90
11925;DHT22;6022;48.768;18.608;2023-02-23T03:39:10;4.80;99.90
11925;DHT22;6022;48.768;18.608;2023-02-23T03:42:18;4.60;99.90
11925;DHT22;6022;48.768;18.608;2023-02-23T03:45:13;4.60;99.90
11925;DHT22;6022;48.768;18.608;2023-02-23T03:48:09;4.80;99.90
11925;DHT22;6022;48.768;18.608;2023-02-23T03:51:02;4.80;99.90
11925;DHT22;6022;48.768;18.608;2023-02-23T03:54:15;4.80;99.90
11925;DHT22;6022;48.768;18.608;2023-02-23T03:57:07;4.80;99.90
11925;DHT22;6022;48.768;18.608;2023-02-23T04:00:03;5.00;99.90
11925;DHT22;6022;48.768;18.608;2023-02-23T04:02:53;4.90;99.90
11925;DHT22;6022;48.768;18.608;2023-02-23T04:05:45;4.90;99.90
11925;DHT22;6022;48.768;18.608;2023-02-23T04:08:36;4.90;99.90
11925;DHT22;6022;48.768;18.608;2023-02-23T04:11:33;5.00;99.90
11925;DHT22;6022;48.768;18.608;2023-02-23T04:15:34;4.90;99.90
11925;DHT22;6022;48.768;18.608;2023-02-23T04:18:12;4.90;99.90
11925;DHT22;6022;48.768;18.608;2023-02-23T04:20:42;5.20;99.90
11925;DHT22;6022;48.768;18.608;2023-02-23T04:23:10;5.10;99.90
11925;DHT22;6022;48.768;18.608;2023-02-23T04:25:43;5.20;99.90
11925;DHT22;6022;48.768;18.608;2023-02-23T04:28:14;4.90;99.90
11925;DHT22;6022;48.768;18.608;2023-02-23T04:30:47;4.80;99.90
11925;DHT22;6022;48.768;18.608;2023-02-23T04:33:25;5.00;99.90
11925;DHT22;6022;48.768;18.608;2023-02-23T04:35:53;4.90;99.90
11925;DHT22;6022;48.768;18.608;2023-02-23T04:38:22;5.00;99.90
11925;DHT22;6022;48.768;18.608;2023-02-23T04:40:59;5.10;99.90
11925;DHT22;6022;48.768;18.608;2023-02-23T04:43:26;5.00;99.90
11925;DHT22;6022;48.768;18.608;2023-02-23T04:45:56;5.20;99.90
11925;DHT22;6022;48.768;18.608;2023-02-23T04:48:40;5.20;99.90
11925;DHT22;6022;48.768;18.608;2023-02-23T04:51:07;4.80;99.90
11925;DHT22;6022;48.768;18.608;2023-02-23T04:53:36;4.80;99.90
11925;DHT22;6022;48.768;18.608;2023-02-23T04:56:04;5.00;99.90
11925;DHT22;6022;48.768;18.608;2023-02-23T04:58:32;4.90;99.90
11925;DHT22;6022;48.768;18.608;2023-02-23T05:01:07;4.80;99.90
11925;DHT22;6022;48.768;18.608;2023-02-23T05:07:41;5.00;99.90
11925;DHT22;6022;48.768;18.608;2023-02-23T05:10:09;5.00;99.90
11925;DHT22;6022;48.768;18.608;2023-02-23T05:12:37;4.90;99.90
11925;DHT22;6022;48.768;18.608;2023-02-23T05:15:06;5.00;99.90
11925;DHT22;6022;48.768;18.608;2023-02-23T05:17:33;4.90;99.90
11925;DHT22;6022;48.768;18.608;2023-02-23T05:20:07;5.20;99.90
11925;DHT22;6022;48.768;18.608;2023-02-23T05:22:36;5.00;99.90
11925;DHT22;6022;48.768;18.608;2023-02-23T05:25:05;4.90;99.90
11925;DHT22;6022;48.768;18.608;2023-02-23T05:27:34;5.10;99.90
11925;DHT22;6022;48.768;18.608;2023-02-23T05:30:04;4.90;99.90
11925;DHT22;6022;48.768;18.608;2023-02-23T05:32:34;5.10;99.90
11925;DHT22;6022;48.768;18.608;2023-02-23T05:35:04;5.00;99.90
11925;DHT22;6022;48.768;18.608;2023-02-23T05:37:35;5.10;99.90
11925;DHT22;6022;48.768;18.608;2023-02-23T05:40:20;5.30;99.90
11925;DHT22;6022;48.768;18.608;2023-02-23T05:42:48;5.10;99.90
11925;DHT22;6022;48.768;18.608;2023-02-23T05:45:15;5.40;99.90
11925;DHT22;6022;48.768;18.608;2023-02-23T05:47:44;5.40;99.90
11925;DHT22;6022;48.768;18.608;2023-02-23T05:50:14;5.40;99.90
11925;DHT22;6022;48.768;18.608;2023-02-23T05:52:43;5.40;99.90
11925;DHT22;6022;48.768;18.608;2023-02-23T05:55:11;5.20;99.90
11925;DHT22;6022;48.768;18.608;2023-02-23T05:57:41;5.30;99.90
11925;DHT22;6022;48.768;18.608;2023-02-23T06:00:10;5.50;99.90
11925;DHT22;6022;48.768;18.608;2023-02-23T06:02:39;5.50;99.90
11925;DHT22;6022;48.768;18.608;2023-02-23T06:05:10;5.40;99.90
11925;DHT22;6022;48.768;18.608;2023-02-23T06:07:39;5.40;99.90
11925;DHT22;6022;48.768;18.608;2023-02-23T06:10:10;5.40;99.90
11925;DHT22;6022;48.768;18.608;2023-02-23T06:12:38;5.30;99.90
11925;DHT22;6022;48.768;18.608;2023-02-23T06:15:07;5.60;99.90
11925;DHT22;6022;48.768;18.608;2023-02-23T06:17:35;5.50;99.90
11925;DHT22;6022;48.768;18.608;2023-02-23T06:20:04;5.40;99.90
11925;DHT22;6022;48.768;18.608;2023-02-23T06:22:34;5.80;99.90
11925;DHT22;6022;48.768;18.608;2023-02-23T06:25:04;5.40;99.90
11925;DHT22;6022;48.768;18.608;2023-02-23T06:27:38;5.50;99.90
11925;DHT22;6022;48.768;18.608;2023-02-23T06:30:07;5.80;99.90
11925;DHT22;6022;48.768;18.608;2023-02-23T06:32:35;5.50;99.90
11925;DHT22;6022;48.768;18.608;2023-02-23T06:35:03;5.50;99.90
11925;DHT22;6022;48.768;18.608;2023-02-23T06:37:33;5.60;99.90
11925;DHT22;6022;48.768;18.608;2023-02-23T06:40:04;5.80;99.90
11925;DHT22;6022;48.768;18.608;2023-02-23T06:42:33;6.10;99.90
11925;DHT22;6022;48.768;18.608;2023-02-23T06:45:03;5.80;99.90
11925;DHT22;6022;48.768;18.608;2023-02-23T06:47:36;6.00;99.90
11925;DHT22;6022;48.768;18.608;2023-02-23T06:50:07;6.10;99.90
11925;DHT22;6022;48.768;18.608;2023-02-23T06:52:38;5.90;99.90
11925;DHT22;6022;48.768;18.608;2023-02-23T06:55:07;5.90;99.90
11925;DHT22;6022;48.768;18.608;2023-02-23T06:57:35;6.00;99.90
11925;DHT22;6022;48.768;18.608;2023-02-23T07:00:03;6.20;99.90
11925;DHT22;6022;48.768;18.608;2023-02-23T07:02:33;6.10;99.90
11925;DHT22;6022;48.768;18.608;2023-02-23T07:05:15;6.10;99.90
11925;DHT22;6022;48.768;18.608;2023-02-23T07:07:43;6.60;99.90
11925;DHT22;6022;48.768;18.608;2023-02-23T07:10:11;6.30;99.90
11925;DHT22;6022;48.768;18.608;2023-02-23T07:12:39;6.10;99.90
11925;DHT22;6022;48.768;18.608;2023-02-23T07:15:10;6.50;99.90
11925;DHT22;6022;48.768;18.608;2023-02-23T07:17:38;6.30;99.90
11925;DHT22;6022;48.768;18.608;2023-02-23T07:20:10;6.40;99.90
11925;DHT22;6022;48.768;18.608;2023-02-23T07:22:38;6.40;99.90
11925;DHT22;6022;48.768;18.608;2023-02-23T07:25:07;6.80;99.90
11925;DHT22;6022;48.768;18.608;2023-02-23T07:27:35;6.40;99.90
11925;DHT22;6022;48.768;18.608;2023-02-23T07:30:03;6.40;99.90
11925;DHT22;6022;48.768;18.608;2023-02-23T07:39:36;6.50;99.90
11925;DHT22;6022;48.768;18.608;2023-02-23T07:42:11;6.50;99.90
11925;DHT22;6022;48.768;18.608;2023-02-23T07:44:39;6.40;99.90
11925;DHT22;6022;48.768;18.608;2023-02-23T07:47:17;6.40;99.90
11925;DHT22;6022;48.768;18.608;2023-02-23T07:50:12;6.80;99.90
11925;DHT22;6022;48.768;18.608;2023-02-23T07:52:57;6.80;99.90
11925;DHT22;6022;48.768;18.608;2023-02-23T07:58:41;6.50;99.90
11925;DHT22;6022;48.768;18.608;2023-02-23T08:01:37;7.00;99.90
11925;DHT22;6022;48.768;18.608;2023-02-23T08:04:05;6.90;99.90
11925;DHT22;6022;48.768;18.608;2023-02-23T08:06:32;6.80;99.90
11925;DHT22;6022;48.768;18.608;2023-02-23T08:09:04;7.00;99.90
11925;DHT22;6022;48.768;18.608;2023-02-23T08:11:34;7.10;99.90
11925;DHT22;6022;48.768;18.608;2023-02-23T08:14:08;7.10;99.90
11925;DHT22;6022;48.768;18.608;2023-02-23T08:16:39;7.10;99.90
11925;DHT22;6022;48.768;18.608;2023-02-23T08:19:29;7.30;99.90
11925;DHT22;6022;48.768;18.608;2023-02-23T08:22:15;7.10;99.90
11925;DHT22;6022;48.768;18.608;2023-02-23T08:33:59;7.40;99.90
11925;DHT22;6022;48.768;18.608;2023-02-23T08:37:47;7.60;99.90
11925;DHT22;6022;48.768;18.608;2023-02-23T08:41:38;7.60;99.90
11925;DHT22;6022;48.768;18.608;2023-02-23T08:58:13;8.00;99.90
11925;DHT22;6022;48.768;18.608;2023-02-23T09:00:39;7.90;99.90
11925;DHT22;6022;48.768;18.608;2023-02-23T09:03:05;7.70;99.90
11925;DHT22;6022;48.768;18.608;2023-02-23T09:05:46;8.00;99.90
11925;DHT22;6022;48.768;18.608;2023-02-23T09:08:43;8.00;99.90
11925;DHT22;6022;48.768;18.608;2023-02-23T09:11:32;8.30;99.90
11925;DHT22;6022;48.768;18.608;2023-02-23T09:14:28;8.20;99.90
11925;DHT22;6022;48.768;18.608;2023-02-23T09:17:24;8.20;99.90
11925;DHT22;6022;48.768;18.608;2023-02-23T09:19:57;8.40;99.90
11925;DHT22;6022;48.768;18.608;2023-02-23T09:22:54;8.40;99.90
11925;DHT22;6022;48.768;18.608;2023-02-23T09:26:18;8.30;99.90
11925;DHT22;6022;48.768;18.608;2023-02-23T09:29:14;8.20;99.90
11925;DHT22;6022;48.768;18.608;2023-02-23T09:32:15;8.30;99.90
11925;DHT22;6022;48.768;18.608;2023-02-23T09:35:27;8.30;99.90
11925;DHT22;6022;48.768;18.608;2023-02-23T09:38:32;8.30;99.90
11925;DHT22;6022;48.768;18.608;2023-02-23T09:45:36;8.20;99.90
11925;DHT22;6022;48.768;18.608;2023-02-23T09:52:54;8.60;99.90
11925;DHT22;6022;48.768;18.608;2023-02-23T09:55:44;8.60;99.90
11925;DHT22;6022;48.768;18.608;2023-02-23T09:58:33;8.60;99.90
11925;DHT22;6022;48.768;18.608;2023-02-23T10:02:00;8.50;99.90
11925;DHT22;6022;48.768;18.608;2023-02-23T10:04:44;8.60;99.90
11925;DHT22;6022;48.768;18.608;2023-02-23T10:07:47;8.70;99.90
11925;DHT22;6022;48.768;18.608;2023-02-23T10:10:35;8.90;99.90
11925;DHT22;6022;48.768;18.608;2023-02-23T10:16:42;9.00;99.90
11925;DHT22;6022;48.768;18.608;2023-02-23T10:19:37;8.90;99.90
11925;DHT22;6022;48.768;18.608;2023-02-23T10:22:38;9.50;99.90
11925;DHT22;6022;48.768;18.608;2023-02-23T10:25:20;9.50;99.90
11925;DHT22;6022;48.768;18.608;2023-02-23T10:27:59;9.50;99.90
11925;DHT22;6022;48.768;18.608;2023-02-23T10:30:30;9.60;99.90
11925;DHT22;6022;48.768;18.608;2023-02-23T10:39:14;9.90;99.90
11925;DHT22;6022;48.768;18.608;2023-02-23T10:41:46;10.10;99.90
11925;DHT22;6022;48.768;18.608;2023-02-23T10:44:20;9.80;99.90
11925;DHT22;6022;48.768;18.608;2023-02-23T10:47:05;9.80;99.90
11925;DHT22;6022;48.768;18.608;2023-02-23T10:49:55;10.00;99.90
11925;DHT22;6022;48.768;18.608;2023-02-23T10:55:04;10.20;99.90
11925;DHT22;6022;48.768;18.608;2023-02-23T10:57:49;10.40;99.90
11925;DHT22;6022;48.768;18.608;2023-02-23T11:00:29;10.50;99.90
11925;DHT22;6022;48.768;18.608;2023-02-23T11:03:01;10.30;99.90
11925;DHT22;6022;48.768;18.608;2023-02-23T11:05:54;10.20;99.90
11925;DHT22;6022;48.768;18.608;2023-02-23T11:08:47;10.00;99.90
11925;DHT22;6022;48.768;18.608;2023-02-23T11:11:32;10.10;99.90
11925;DHT22;6022;48.768;18.608;2023-02-23T11:14:26;10.40;99.90
11925;DHT22;6022;48.768;18.608;2023-02-23T11:18:06;10.60;99.90
11925;DHT22;6022;48.768;18.608;2023-02-23T11:20:50;11.10;99.90
11925;DHT22;6022;48.768;18.608;2023-02-23T11:23:44;11.50;99.90
11925;DHT22;6022;48.768;18.608;2023-02-23T11:26:22;11.30;99.90
11925;DHT22;6022;48.768;18.608;2023-02-23T11:28:57;11.40;99.90
11925;DHT22;6022;48.768;18.608;2023-02-23T11:31:32;11.40;99.90
11925;DHT22;6022;48.768;18.608;2023-02-23T11:34:05;11.10;99.90
11925;DHT22;6022;48.768;18.608;2023-02-23T11:36:35;11.40;99.90
11925;DHT22;6022;48.768;18.608;2023-02-23T11:41:43;11.20;99.90
11925;DHT22;6022;48.768;18.608;2023-02-23T11:44:21;11.20;99.90
11925;DHT22;6022;48.768;18.608;2023-02-23T11:46:50;11.30;99.90
11925;DHT22;6022;48.768;18.608;2023-02-23T11:49:22;11.40;99.90
11925;DHT22;6022;48.768;18.608;2023-02-23T11:51:57;11.50;99.90
11925;DHT22;6022;48.768;18.608;2023-02-23T11:54:29;11.70;99.90
11925;DHT22;6022;48.768;18.608;2023-02-23T11:56:59;11.70;99.90
11925;DHT22;6022;48.768;18.608;2023-02-23T11:59:36;11.50;99.90
11925;DHT22;6022;48.768;18.608;2023-02-23T12:02:29;11.90;99.90
11925;DHT22;6022;48.768;18.608;2023-02-23T12:05:17;11.70;99.90
11925;DHT22;6022;48.768;18.608;2023-02-23T12:08:05;11.60;99.90
11925;DHT22;6022;48.768;18.608;2023-02-23T12:10:42;11.40;99.90
11925;DHT22;6022;48.768;18.608;2023-02-23T12:16:43;11.60;99.90
11925;DHT22;6022;48.768;18.608;2023-02-23T12:22:32;11.60;99.90
11925;DHT22;6022;48.768;18.608;2023-02-23T12:28:15;11.60;99.90
11925;DHT22;6022;48.768;18.608;2023-02-23T12:30:59;11.60;99.90
11925;DHT22;6022;48.768;18.608;2023-02-23T12:33:43;11.40;99.90
11925;DHT22;6022;48.768;18.608;2023-02-23T12:36:36;11.50;99.90
11925;DHT22;6022;48.768;18.608;2023-02-23T12:39:28;11.60;99.90
11925;DHT22;6022;48.768;18.608;2023-02-23T12:44:54;11.50;99.90
11925;DHT22;6022;48.768;18.608;2023-02-23T12:50:27;11.20;99.90
11925;DHT22;6022;48.768;18.608;2023-02-23T13:02:36;11.20;99.90
11925;DHT22;6022;48.768;18.608;2023-02-23T13:05:27;10.90;99.90
11925;DHT22;6022;48.768;18.608;2023-02-23T13:08:10;10.90;99.90
11925;DHT22;6022;48.768;18.608;2023-02-23T13:11:05;10.90;99.90
11925;DHT22;6022;48.768;18.608;2023-02-23T13:13:55;10.70;99.90
11925;DHT22;6022;48.768;18.608;2023-02-23T13:16:36;10.90;99.90
11925;DHT22;6022;48.768;18.608;2023-02-23T13:19:20;10.80;99.90
11925;DHT22;6022;48.768;18.608;2023-02-23T13:24:34;10.80;99.90
11925;DHT22;6022;48.768;18.608;2023-02-23T13:27:33;10.90;99.90
11925;DHT22;6022;48.768;18.608;2023-02-23T13:30:13;11.00;99.90
11925;DHT22;6022;48.768;18.608;2023-02-23T13:32:43;10.90;99.90
11925;DHT22;6022;48.768;18.608;2023-02-23T13:35:16;11.00;99.90
11925;DHT22;6022;48.768;18.608;2023-02-23T13:37:55;11.00;99.90
11925;DHT22;6022;48.768;18.608;2023-02-23T13:43:36;10.80;99.90
11925;DHT22;6022;48.768;18.608;2023-02-23T13:52:31;10.90;99.90
11925;DHT22;6022;48.768;18.608;2023-02-23T13:58:15;11.10;99.90
11925;DHT22;6022;48.768;18.608;2023-02-23T14:01:07;10.90;99.90
11925;DHT22;6022;48.768;18.608;2023-02-23T14:03:58;10.60;99.90
11925;DHT22;6022;48.768;18.608;2023-02-23T14:06:37;10.70;99.90
11925;DHT22;6022;48.768;18.608;2023-02-23T14:09:27;10.90;99.90
11925;DHT22;6022;48.768;18.608;2023-02-23T14:24:18;10.80;99.90
11925;DHT22;6022;48.768;18.608;2023-02-23T14:32:39;10.90;99.90
11925;DHT22;6022;48.768;18.608;2023-02-23T14:38:15;10.90;99.90
11925;DHT22;6022;48.768;18.608;2023-02-23T14:40:52;10.80;99.90
11925;DHT22;6022;48.768;18.608;2023-02-23T14:46:11;10.70;99.90
11925;DHT22;6022;48.768;18.608;2023-02-23T14:49:15;10.70;99.90
11925;DHT22;6022;48.768;18.608;2023-02-23T14:51:53;11.00;99.90
11925;DHT22;6022;48.768;18.608;2023-02-23T14:54:27;10.60;99.90
11925;DHT22;6022;48.768;18.608;2023-02-23T14:57:19;10.70;99.90
11925;DHT22;6022;48.768;18.608;2023-02-23T15:00:01;10.80;99.90
11925;DHT22;6022;48.768;18.608;2023-02-23T15:02:34;10.60;99.90
11925;DHT22;6022;48.768;18.608;2023-02-23T15:05:22;10.60;99.90
11925;DHT22;6022;48.768;18.608;2023-02-23T15:07:55;11.00;99.90
11925;DHT22;6022;48.768;18.608;2023-02-23T15:10:37;10.70;99.90
11925;DHT22;6022;48.768;18.608;2023-02-23T15:15:46;10.70;99.90
11925;DHT22;6022;48.768;18.608;2023-02-23T15:21:58;10.70;99.90
11925;DHT22;6022;48.768;18.608;2023-02-23T15:24:41;10.60;99.90
11925;DHT22;6022;48.768;18.608;2023-02-23T15:27:21;10.50;99.90
11925;DHT22;6022;48.768;18.608;2023-02-23T15:29:56;10.60;99.90
11925;DHT22;6022;48.768;18.608;2023-02-23T15:32:25;10.20;99.90
11925;DHT22;6022;48.768;18.608;2023-02-23T15:34:53;10.30;99.90
11925;DHT22;6022;48.768;18.608;2023-02-23T15:37:39;10.50;99.90
11925;DHT22;6022;48.768;18.608;2023-02-23T15:40:37;10.60;99.90
11925;DHT22;6022;48.768;18.608;2023-02-23T15:43:04;10.40;99.90
11925;DHT22;6022;48.768;18.608;2023-02-23T15:45:50;10.40;99.90
11925;DHT22;6022;48.768;18.608;2023-02-23T15:48:26;10.30;99.90
11925;DHT22;6022;48.768;18.608;2023-02-23T15:50:58;10.10;99.90
11925;DHT22;6022;48.768;18.608;2023-02-23T15:53:29;10.20;99.90
11925;DHT22;6022;48.768;18.608;2023-02-23T15:56:25;10.00;99.90
11925;DHT22;6022;48.768;18.608;2023-02-23T15:58:57;10.10;99.90
11925;DHT22;6022;48.768;18.608;2023-02-23T16:01:31;10.20;99.90
11925;DHT22;6022;48.768;18.608;2023-02-23T16:06:54;10.20;99.90
11925;DHT22;6022;48.768;18.608;2023-02-23T16:09:36;9.90;99.90
11925;DHT22;6022;48.768;18.608;2023-02-23T16:12:10;10.20;99.90
11925;DHT22;6022;48.768;18.608;2023-02-23T16:17:42;10.00;99.90
11925;DHT22;6022;48.768;18.608;2023-02-23T16:20:36;9.80;99.90
11925;DHT22;6022;48.768;18.608;2023-02-23T16:23:26;10.80;99.90
11925;DHT22;6022;48.768;18.608;2023-02-23T16:26:36;9.80;99.90
11925;DHT22;6022;48.768;18.608;2023-02-23T16:29:14;9.80;99.90
11925;DHT22;6022;48.768;18.608;2023-02-23T16:31:48;10.00;99.90
11925;DHT22;6022;48.768;18.608;2023-02-23T16:34:30;9.90;99.90
11925;DHT22;6022;48.768;18.608;2023-02-23T16:37:22;10.10;99.90
11925;DHT22;6022;48.768;18.608;2023-02-23T16:39:52;9.90;99.90
11925;DHT22;6022;48.768;18.608;2023-02-23T16:42:33;9.90;99.90
11925;DHT22;6022;48.768;18.608;2023-02-23T16:45:04;9.70;99.90
11925;DHT22;6022;48.768;18.608;2023-02-23T16:47:39;10.00;99.90
11925;DHT22;6022;48.768;18.608;2023-02-23T16:50:15;9.60;99.90
11925;DHT22;6022;48.768;18.608;2023-02-23T16:52:48;9.70;99.90
11925;DHT22;6022;48.768;18.608;2023-02-23T16:55:29;9.70;99.90
11925;DHT22;6022;48.768;18.608;2023-02-23T16:58:09;9.50;99.90
11925;DHT22;6022;48.768;18.608;2023-02-23T17:00:42;9.60;99.90
11925;DHT22;6022;48.768;18.608;2023-02-23T17:03:25;9.90;99.90
11925;DHT22;6022;48.768;18.608;2023-02-23T17:05:54;9.30;99.90
11925;DHT22;6022;48.768;18.608;2023-02-23T17:08:22;9.60;99.90
11925;DHT22;6022;48.768;18.608;2023-02-23T17:10:51;9.70;99.90
11925;DHT22;6022;48.768;18.608;2023-02-23T17:13:26;9.60;99.90
11925;DHT22;6022;48.768;18.608;2023-02-23T17:15:59;9.60;99.90
11925;DHT22;6022;48.768;18.608;2023-02-23T17:18:31;9.30;99.90
11925;DHT22;6022;48.768;18.608;2023-02-23T17:21:07;9.50;99.90
11925;DHT22;6022;48.768;18.608;2023-02-23T17:23:40;9.50;99.90
11925;DHT22;6022;48.768;18.608;2023-02-23T17:26:14;9.50;99.90
11925;DHT22;6022;48.768;18.608;2023-02-23T17:28:43;9.50;99.90
11925;DHT22;6022;48.768;18.608;2023-02-23T17:31:19;9.50;99.90
11925;DHT22;6022;48.768;18.608;2023-02-23T17:33:51;9.50;99.90
11925;DHT22;6022;48.768;18.608;2023-02-23T17:36:42;9.10;99.90
11925;DHT22;6022;48.768;18.608;2023-02-23T17:39:10;9.30;99.90
11925;DHT22;6022;48.768;18.608;2023-02-23T17:41:39;9.40;99.90
11925;DHT22;6022;48.768;18.608;2023-02-23T17:44:13;9.10;99.90
11925;DHT22;6022;48.768;18.608;2023-02-23T17:46:49;9.10;99.90
11925;DHT22;6022;48.768;18.608;2023-02-23T17:49:16;9.20;99.90
11925;DHT22;6022;48.768;18.608;2023-02-23T17:51:43;9.10;99.90
11925;DHT22;6022;48.768;18.608;2023-02-23T17:54:11;9.20;99.90
11925;DHT22;6022;48.768;18.608;2023-02-23T17:56:41;9.00;99.90
11925;DHT22;6022;48.768;18.608;2023-02-23T17:59:09;9.10;99.90
11925;DHT22;6022;48.768;18.608;2023-02-23T18:01:36;9.00;99.90
11925;DHT22;6022;48.768;18.608;2023-02-23T18:04:03;8.60;99.90
11925;DHT22;6022;48.768;18.608;2023-02-23T18:06:31;8.90;99.90
11925;DHT22;6022;48.768;18.608;2023-02-23T18:08:58;8.60;99.90
11925;DHT22;6022;48.768;18.608;2023-02-23T18:11:34;8.60;99.90
11925;DHT22;6022;48.768;18.608;2023-02-23T18:14:03;8.90;99.90
11925;DHT22;6022;48.768;18.608;2023-02-23T18:16:30;9.00;99.90
11925;DHT22;6022;48.768;18.608;2023-02-23T18:18:59;8.80;99.90
11925;DHT22;6022;48.768;18.608;2023-02-23T18:21:27;9.00;99.90
11925;DHT22;6022;48.768;18.608;2023-02-23T18:23:58;8.70;99.90
11925;DHT22;6022;48.768;18.608;2023-02-23T18:26:28;8.60;99.90
11925;DHT22;6022;48.768;18.608;2023-02-23T18:28:56;8.70;99.90
11925;DHT22;6022;48.768;18.608;2023-02-23T18:31:25;8.80;99.90
11925;DHT22;6022;48.768;18.608;2023-02-23T18:34:01;8.70;99.90
11925;DHT22;6022;48.768;18.608;2023-02-23T18:36:33;8.80;99.90
11925;DHT22;6022;48.768;18.608;2023-02-23T18:39:07;8.80;99.90
11925;DHT22;6022;48.768;18.608;2023-02-23T18:41:35;8.80;99.90
11925;DHT22;6022;48.768;18.608;2023-02-23T18:44:05;8.80;99.90
11925;DHT22;6022;48.768;18.608;2023-02-23T18:46:40;8.80;99.90
11925;DHT22;6022;48.768;18.608;2023-02-23T18:49:14;8.80;99.90
11925;DHT22;6022;48.768;18.608;2023-02-23T18:51:46;8.70;99.90
11925;DHT22;6022;48.768;18.608;2023-02-23T18:54:14;8.80;99.90
11925;DHT22;6022;48.768;18.608;2023-02-23T18:56:46;8.70;99.90
11925;DHT22;6022;48.768;18.608;2023-02-23T18:59:14;8.70;99.90
11925;DHT22;6022;48.768;18.608;2023-02-23T19:01:42;8.40;99.90
11925;DHT22;6022;48.768;18.608;2023-02-23T19:04:17;8.80;99.90
11925;DHT22;6022;48.768;18.608;2023-02-23T19:06:45;8.70;99.90
11925;DHT22;6022;48.768;18.608;2023-02-23T19:09:13;8.60;99.90
11925;DHT22;6022;48.768;18.608;2023-02-23T19:11:45;8.70;99.90
11925;DHT22;6022;48.768;18.608;2023-02-23T19:14:22;8.40;99.90
11925;DHT22;6022;48.768;18.608;2023-02-23T19:17:11;8.50;99.90
11925;DHT22;6022;48.768;18.608;2023-02-23T19:19:38;8.50;99.90
11925;DHT22;6022;48.768;18.608;2023-02-23T19:22:08;8.70;99.90
11925;DHT22;6022;48.768;18.608;2023-02-23T19:24:35;8.70;99.90
11925;DHT22;6022;48.768;18.608;2023-02-23T19:27:03;5.60;99.90
11925;DHT22;6022;48.768;18.608;2023-02-23T19:29:33;8.70;99.90
11925;DHT22;6022;48.768;18.608;2023-02-23T19:32:00;8.30;99.90
11925;DHT22;6022;48.768;18.608;2023-02-23T19:34:32;8.20;99.90
11925;DHT22;6022;48.768;18.608;2023-02-23T19:36:59;8.60;99.90
11925;DHT22;6022;48.768;18.608;2023-02-23T19:39:27;8.30;99.90
11925;DHT22;6022;48.768;18.608;2023-02-23T19:41:55;8.30;99.90
11925;DHT22;6022;48.768;18.608;2023-02-23T19:44:23;8.20;99.90